sensor_id;sensor_type;location;lat;lon;timestamp;P1;durP1;ratioP1;P2;durP2;ratioP2
10191;SDS011;17580;50.850;4.504;2022-10-30T00:00:43;6.90;;;4.73;;
10191;SDS011;17580;50.850;4.504;2022-10-30T00:03:12;10.20;;;5.50;;
10191;SDS011;17580;50.850;4.504;2022-10-30T00:05:40;10.53;;;4.77;;
10191;SDS011;17580;50.850;4.504;2022-10-30T00:08:09;6.30;;;4.53;;
10191;SDS011;17580;50.850;4.504;2022-10-30T00:10:36;9.43;;;4.67;;
10191;SDS011;17580;50.850;4.504;2022-10-30T00:13:03;7.43;;;4.67;;
10191;SDS011;17580;50.850;4.504;2022-10-30T00:15:30;8.37;;;4.77;;
10191;SDS011;17580;50.850;4.504;2022-10-30T00:17:57;9.17;;;4.37;;
10191;SDS011;17580;50.850;4.504;2022-10-30T00:20:26;10.10;;;4.23;;
10191;SDS011;17580;50.850;4.504;2022-10-30T00:22:53;5.20;;;4.33;;
10191;SDS011;17580;50.850;4.504;2022-10-30T00:25:20;7.47;;;4.60;;
10191;SDS011;17580;50.850;4.504;2022-10-30T00:27:47;8.00;;;4.77;;
10191;SDS011;17580;50.850;4.504;2022-10-30T00:30:14;7.80;;;5.57;;
10191;SDS011;17580;50.850;4.504;2022-10-30T00:32:42;10.07;;;6.10;;
10191;SDS011;17580;50.850;4.504;2022-10-30T00:35:10;7.30;;;5.47;;
10191;SDS011;17580;50.850;4.504;2022-10-30T00:37:38;15.57;;;6.90;;
10191;SDS011;17580;50.850;4.504;2022-10-30T00:40:06;16.63;;;10.87;;
10191;SDS011;17580;50.850;4.504;2022-10-30T00:42:35;23.37;;;14.00;;
10191;SDS011;17580;50.850;4.504;2022-10-30T00:45:02;27.90;;;16.10;;
10191;SDS011;17580;50.850;4.504;2022-10-30T00:47:29;23.03;;;13.00;;
10191;SDS011;17580;50.850;4.504;2022-10-30T00:50:02;22.93;;;13.03;;
10191;SDS011;17580;50.850;4.504;2022-10-30T00:52:33;27.17;;;10.60;;
10191;SDS011;17580;50.850;4.504;2022-10-30T00:55:06;17.10;;;8.77;;
10191;SDS011;17580;50.850;4.504;2022-10-30T00:57:37;18.33;;;7.50;;
10191;SDS011;17580;50.850;4.504;2022-10-30T01:00:05;9.47;;;5.27;;
10191;SDS011;17580;50.850;4.504;2022-10-30T01:02:35;7.27;;;5.20;;
10191;SDS011;17580;50.850;4.504;2022-10-30T01:05:04;10.67;;;5.47;;
10191;SDS011;17580;50.850;4.504;2022-10-30T01:07:32;7.63;;;4.50;;
10191;SDS011;17580;50.850;4.504;2022-10-30T01:09:59;7.53;;;4.13;;
10191;SDS011;17580;50.850;4.504;2022-10-30T01:12:27;6.87;;;4.27;;
10191;SDS011;17580;50.850;4.504;2022-10-30T01:14:55;7.07;;;3.70;;
10191;SDS011;17580;50.850;4.504;2022-10-30T01:20:32;6.23;;;4.13;;
10191;SDS011;17580;50.850;4.504;2022-10-30T01:23:22;8.03;;;3.73;;
10191;SDS011;17580;50.850;4.504;2022-10-30T01:26:00;5.67;;;3.63;;
10191;SDS011;17580;50.850;4.504;2022-10-30T01:28:38;4.43;;;3.30;;
10191;SDS011;17580;50.850;4.504;2022-10-30T01:31:16;5.27;;;3.37;;
10191;SDS011;17580;50.850;4.504;2022-10-30T01:33:59;6.10;;;3.90;;
10191;SDS011;17580;50.850;4.504;2022-10-30T01:36:39;8.80;;;3.83;;
10191;SDS011;17580;50.850;4.504;2022-10-30T01:39:11;12.80;;;3.70;;
10191;SDS011;17580;50.850;4.504;2022-10-30T01:41:41;5.03;;;3.70;;
10191;SDS011;17580;50.850;4.504;2022-10-30T01:44:11;4.73;;;3.40;;
10191;SDS011;17580;50.850;4.504;2022-10-30T01:46:43;4.37;;;3.10;;
10191;SDS011;17580;50.850;4.504;2022-10-30T01:49:26;5.03;;;3.93;;
10191;SDS011;17580;50.850;4.504;2022-10-30T01:52:04;5.30;;;3.50;;
10191;SDS011;17580;50.850;4.504;2022-10-30T01:54:37;7.00;;;3.80;;
10191;SDS011;17580;50.850;4.504;2022-10-30T01:57:11;7.57;;;4.03;;
10191;SDS011;17580;50.850;4.504;2022-10-30T01:59:48;6.90;;;3.10;;
10191;SDS011;17580;50.850;4.504;2022-10-30T02:02:19;5.27;;;3.63;;
10191;SDS011;17580;50.850;4.504;2022-10-30T02:04:46;5.00;;;3.30;;
10191;SDS011;17580;50.850;4.504;2022-10-30T02:07:13;5.07;;;3.47;;
10191;SDS011;17580;50.850;4.504;2022-10-30T02:09:40;14.97;;;3.97;;
10191;SDS011;17580;50.850;4.504;2022-10-30T02:12:07;7.47;;;3.80;;
10191;SDS011;17580;50.850;4.504;2022-10-30T02:14:36;9.03;;;3.10;;
10191;SDS011;17580;50.850;4.504;2022-10-30T02:17:08;5.40;;;3.57;;
10191;SDS011;17580;50.850;4.504;2022-10-30T02:19:36;6.23;;;3.93;;
10191;SDS011;17580;50.850;4.504;2022-10-30T02:22:05;4.23;;;3.07;;
10191;SDS011;17580;50.850;4.504;2022-10-30T02:24:33;7.77;;;3.10;;
10191;SDS011;17580;50.850;4.504;2022-10-30T02:27:00;2.87;;;2.67;;
10191;SDS011;17580;50.850;4.504;2022-10-30T02:29:27;6.33;;;3.20;;
10191;SDS011;17580;50.850;4.504;2022-10-30T02:31:54;4.43;;;3.23;;
10191;SDS011;17580;50.850;4.504;2022-10-30T02:34:21;3.73;;;3.17;;
10191;SDS011;17580;50.850;4.504;2022-10-30T02:36:48;5.83;;;3.40;;
10191;SDS011;17580;50.850;4.504;2022-10-30T02:39:16;4.87;;;3.73;;
10191;SDS011;17580;50.850;4.504;2022-10-30T02:41:44;6.30;;;3.73;;
10191;SDS011;17580;50.850;4.504;2022-10-30T02:44:11;5.93;;;3.70;;
10191;SDS011;17580;50.850;4.504;2022-10-30T02:46:38;5.53;;;3.57;;
10191;SDS011;17580;50.850;4.504;2022-10-30T02:49:06;4.73;;;3.47;;
10191;SDS011;17580;50.850;4.504;2022-10-30T02:51:33;4.97;;;3.50;;
10191;SDS011;17580;50.850;4.504;2022-10-30T02:53:59;4.93;;;3.13;;
10191;SDS011;17580;50.850;4.504;2022-10-30T02:56:28;6.13;;;3.90;;
10191;SDS011;17580;50.850;4.504;2022-10-30T02:58:55;5.70;;;3.63;;
10191;SDS011;17580;50.850;4.504;2022-10-30T03:01:22;5.50;;;3.40;;
10191;SDS011;17580;50.850;4.504;2022-10-30T03:03:49;4.43;;;3.37;;
10191;SDS011;17580;50.850;4.504;2022-10-30T03:06:16;5.97;;;3.93;;
10191;SDS011;17580;50.850;4.504;2022-10-30T03:08:43;5.60;;;3.67;;
10191;SDS011;17580;50.850;4.504;2022-10-30T03:11:11;5.53;;;3.80;;
10191;SDS011;17580;50.850;4.504;2022-10-30T03:13:41;9.23;;;3.10;;
10191;SDS011;17580;50.850;4.504;2022-10-30T03:16:08;4.97;;;3.10;;
10191;SDS011;17580;50.850;4.504;2022-10-30T03:18:37;7.80;;;3.70;;
10191;SDS011;17580;50.850;4.504;2022-10-30T03:21:05;5.50;;;3.53;;
10191;SDS011;17580;50.850;4.504;2022-10-30T03:23:34;5.53;;;3.43;;
10191;SDS011;17580;50.850;4.504;2022-10-30T03:26:01;9.83;;;3.73;;
10191;SDS011;17580;50.850;4.504;2022-10-30T03:28:29;5.67;;;3.87;;
10191;SDS011;17580;50.850;4.504;2022-10-30T03:30:58;4.97;;;3.47;;
10191;SDS011;17580;50.850;4.504;2022-10-30T03:33:26;4.80;;;3.33;;
10191;SDS011;17580;50.850;4.504;2022-10-30T03:35:53;8.07;;;3.90;;
10191;SDS011;17580;50.850;4.504;2022-10-30T03:38:20;6.60;;;3.60;;
10191;SDS011;17580;50.850;4.504;2022-10-30T03:40:47;4.90;;;3.50;;
10191;SDS011;17580;50.850;4.504;2022-10-30T03:43:14;6.67;;;3.60;;
10191;SDS011;17580;50.850;4.504;2022-10-30T03:45:44;7.20;;;3.43;;
10191;SDS011;17580;50.850;4.504;2022-10-30T03:48:14;5.50;;;3.63;;
10191;SDS011;17580;50.850;4.504;2022-10-30T03:50:41;4.73;;;3.13;;
10191;SDS011;17580;50.850;4.504;2022-10-30T03:53:08;5.00;;;3.43;;
10191;SDS011;17580;50.850;4.504;2022-10-30T03:55:35;5.53;;;3.73;;
10191;SDS011;17580;50.850;4.504;2022-10-30T03:58:02;7.07;;;3.37;;
10191;SDS011;17580;50.850;4.504;2022-10-30T04:00:29;3.30;;;2.90;;
10191;SDS011;17580;50.850;4.504;2022-10-30T04:02:57;5.23;;;3.30;;
10191;SDS011;17580;50.850;4.504;2022-10-30T04:05:27;4.93;;;3.70;;
10191;SDS011;17580;50.850;4.504;2022-10-30T04:07:54;9.27;;;3.50;;
10191;SDS011;17580;50.850;4.504;2022-10-30T04:10:22;7.63;;;4.17;;
10191;SDS011;17580;50.850;4.504;2022-10-30T04:12:49;4.90;;;3.50;;
10191;SDS011;17580;50.850;4.504;2022-10-30T04:15:16;8.10;;;3.93;;
10191;SDS011;17580;50.850;4.504;2022-10-30T04:17:47;5.33;;;3.63;;
10191;SDS011;17580;50.850;4.504;2022-10-30T04:20:15;5.73;;;3.57;;
10191;SDS011;17580;50.850;4.504;2022-10-30T04:22:44;5.77;;;3.60;;
10191;SDS011;17580;50.850;4.504;2022-10-30T04:25:11;11.50;;;4.37;;
10191;SDS011;17580;50.850;4.504;2022-10-30T04:27:39;4.97;;;3.83;;
10191;SDS011;17580;50.850;4.504;2022-10-30T04:30:07;6.83;;;4.10;;
10191;SDS011;17580;50.850;4.504;2022-10-30T04:32:35;3.97;;;3.13;;
10191;SDS011;17580;50.850;4.504;2022-10-30T04:35:10;8.87;;;4.20;;
10191;SDS011;17580;50.850;4.504;2022-10-30T04:37:37;8.17;;;4.00;;
10191;SDS011;17580;50.850;4.504;2022-10-30T04:40:06;6.90;;;3.70;;
10191;SDS011;17580;50.850;4.504;2022-10-30T04:42:33;9.53;;;4.97;;
10191;SDS011;17580;50.850;4.504;2022-10-30T04:45:00;7.27;;;3.80;;
10191;SDS011;17580;50.850;4.504;2022-10-30T04:47:28;8.90;;;4.03;;
10191;SDS011;17580;50.850;4.504;2022-10-30T04:49:55;9.03;;;3.87;;
10191;SDS011;17580;50.850;4.504;2022-10-30T04:52:21;5.30;;;3.70;;
10191;SDS011;17580;50.850;4.504;2022-10-30T04:54:48;6.40;;;3.47;;
10191;SDS011;17580;50.850;4.504;2022-10-30T04:57:17;4.53;;;3.37;;
10191;SDS011;17580;50.850;4.504;2022-10-30T04:59:44;5.00;;;3.73;;
10191;SDS011;17580;50.850;4.504;2022-10-30T05:02:10;4.67;;;4.13;;
10191;SDS011;17580;50.850;4.504;2022-10-30T05:04:37;7.70;;;4.20;;
10191;SDS011;17580;50.850;4.504;2022-10-30T05:07:04;6.00;;;3.33;;
10191;SDS011;17580;50.850;4.504;2022-10-30T05:09:32;6.70;;;4.23;;
10191;SDS011;17580;50.850;4.504;2022-10-30T05:11:59;7.13;;;4.03;;
10191;SDS011;17580;50.850;4.504;2022-10-30T05:14:28;6.77;;;3.80;;
10191;SDS011;17580;50.850;4.504;2022-10-30T05:16:55;8.40;;;4.87;;
10191;SDS011;17580;50.850;4.504;2022-10-30T05:19:22;10.67;;;5.37;;
10191;SDS011;17580;50.850;4.504;2022-10-30T05:21:49;6.77;;;4.70;;
10191;SDS011;17580;50.850;4.504;2022-10-30T05:24:16;5.13;;;4.00;;
10191;SDS011;17580;50.850;4.504;2022-10-30T05:26:43;9.03;;;3.83;;
10191;SDS011;17580;50.850;4.504;2022-10-30T05:29:11;10.17;;;4.50;;
10191;SDS011;17580;50.850;4.504;2022-10-30T05:31:39;14.33;;;4.07;;
10191;SDS011;17580;50.850;4.504;2022-10-30T05:34:06;8.27;;;4.30;;
10191;SDS011;17580;50.850;4.504;2022-10-30T05:36:33;8.73;;;4.67;;
10191;SDS011;17580;50.850;4.504;2022-10-30T05:39:00;11.07;;;4.57;;
10191;SDS011;17580;50.850;4.504;2022-10-30T05:41:27;8.70;;;4.20;;
10191;SDS011;17580;50.850;4.504;2022-10-30T05:43:54;4.53;;;3.87;;
10191;SDS011;17580;50.850;4.504;2022-10-30T05:46:21;6.13;;;4.40;;
10191;SDS011;17580;50.850;4.504;2022-10-30T05:48:49;9.03;;;4.50;;
10191;SDS011;17580;50.850;4.504;2022-10-30T05:51:16;6.33;;;4.63;;
10191;SDS011;17580;50.850;4.504;2022-10-30T05:53:43;6.50;;;4.40;;
10191;SDS011;17580;50.850;4.504;2022-10-30T05:56:12;11.53;;;4.10;;
10191;SDS011;17580;50.850;4.504;2022-10-30T05:58:39;8.20;;;4.67;;
10191;SDS011;17580;50.850;4.504;2022-10-30T06:01:06;8.53;;;4.70;;
10191;SDS011;17580;50.850;4.504;2022-10-30T06:03:34;9.57;;;4.23;;
10191;SDS011;17580;50.850;4.504;2022-10-30T06:06:02;7.50;;;4.80;;
10191;SDS011;17580;50.850;4.504;2022-10-30T06:08:29;9.53;;;4.53;;
10191;SDS011;17580;50.850;4.504;2022-10-30T06:10:56;6.10;;;4.13;;
10191;SDS011;17580;50.850;4.504;2022-10-30T06:13:23;6.93;;;3.60;;
10191;SDS011;17580;50.850;4.504;2022-10-30T06:15:50;4.70;;;4.23;;
10191;SDS011;17580;50.850;4.504;2022-10-30T06:18:19;7.73;;;4.10;;
10191;SDS011;17580;50.850;4.504;2022-10-30T06:20:46;4.33;;;3.90;;
10191;SDS011;17580;50.850;4.504;2022-10-30T06:23:14;6.47;;;4.37;;
10191;SDS011;17580;50.850;4.504;2022-10-30T06:25:41;7.33;;;3.70;;
10191;SDS011;17580;50.850;4.504;2022-10-30T06:28:08;9.50;;;4.63;;
10191;SDS011;17580;50.850;4.504;2022-10-30T06:30:37;11.53;;;4.47;;
10191;SDS011;17580;50.850;4.504;2022-10-30T06:33:04;9.73;;;4.93;;
10191;SDS011;17580;50.850;4.504;2022-10-30T06:35:32;4.20;;;3.80;;
10191;SDS011;17580;50.850;4.504;2022-10-30T06:37:59;7.00;;;3.93;;
10191;SDS011;17580;50.850;4.504;2022-10-30T06:40:27;5.53;;;3.53;;
10191;SDS011;17580;50.850;4.504;2022-10-30T06:42:55;6.20;;;3.67;;
10191;SDS011;17580;50.850;4.504;2022-10-30T06:45:22;7.80;;;3.97;;
10191;SDS011;17580;50.850;4.504;2022-10-30T06:47:49;7.23;;;4.23;;
10191;SDS011;17580;50.850;4.504;2022-10-30T06:50:17;7.63;;;4.37;;
10191;SDS011;17580;50.850;4.504;2022-10-30T06:52:45;9.97;;;3.80;;
10191;SDS011;17580;50.850;4.504;2022-10-30T06:55:13;7.80;;;4.10;;
10191;SDS011;17580;50.850;4.504;2022-10-30T06:57:42;6.03;;;4.53;;
10191;SDS011;17580;50.850;4.504;2022-10-30T07:00:09;5.47;;;3.43;;
10191;SDS011;17580;50.850;4.504;2022-10-30T07:02:37;5.60;;;3.97;;
10191;SDS011;17580;50.850;4.504;2022-10-30T07:05:04;13.77;;;4.13;;
10191;SDS011;17580;50.850;4.504;2022-10-30T07:07:32;9.00;;;4.70;;
10191;SDS011;17580;50.850;4.504;2022-10-30T07:09:58;7.93;;;4.73;;
10191;SDS011;17580;50.850;4.504;2022-10-30T07:12:25;7.47;;;4.10;;
10191;SDS011;17580;50.850;4.504;2022-10-30T07:14:54;6.87;;;4.17;;
10191;SDS011;17580;50.850;4.504;2022-10-30T07:17:21;6.70;;;4.00;;
10191;SDS011;17580;50.850;4.504;2022-10-30T07:19:48;4.83;;;3.70;;
10191;SDS011;17580;50.850;4.504;2022-10-30T07:22:14;4.90;;;3.93;;
10191;SDS011;17580;50.850;4.504;2022-10-30T07:24:41;8.17;;;4.20;;
10191;SDS011;17580;50.850;4.504;2022-10-30T07:27:08;4.23;;;3.83;;
10191;SDS011;17580;50.850;4.504;2022-10-30T07:29:35;7.23;;;3.70;;
10191;SDS011;17580;50.850;4.504;2022-10-30T07:32:04;5.03;;;4.27;;
10191;SDS011;17580;50.850;4.504;2022-10-30T07:34:31;6.60;;;4.10;;
10191;SDS011;17580;50.850;4.504;2022-10-30T07:36:58;4.50;;;3.90;;
10191;SDS011;17580;50.850;4.504;2022-10-30T07:39:25;4.50;;;3.90;;
10191;SDS011;17580;50.850;4.504;2022-10-30T07:41:52;6.37;;;3.80;;
10191;SDS011;17580;50.850;4.504;2022-10-30T07:44:19;4.73;;;3.23;;
10191;SDS011;17580;50.850;4.504;2022-10-30T07:46:45;10.93;;;4.30;;
10191;SDS011;17580;50.850;4.504;2022-10-30T07:49:14;11.07;;;4.97;;
10191;SDS011;17580;50.850;4.504;2022-10-30T07:51:41;10.33;;;3.93;;
10191;SDS011;17580;50.850;4.504;2022-10-30T07:54:08;9.27;;;3.50;;
10191;SDS011;17580;50.850;4.504;2022-10-30T07:56:34;4.77;;;3.30;;
10191;SDS011;17580;50.850;4.504;2022-10-30T07:59:01;4.70;;;3.70;;
10191;SDS011;17580;50.850;4.504;2022-10-30T08:01:28;6.57;;;3.63;;
10191;SDS011;17580;50.850;4.504;2022-10-30T08:03:55;7.03;;;4.23;;
10191;SDS011;17580;50.850;4.504;2022-10-30T08:06:23;4.87;;;3.20;;
10191;SDS011;17580;50.850;4.504;2022-10-30T08:08:50;8.10;;;3.80;;
10191;SDS011;17580;50.850;4.504;2022-10-30T08:11:17;5.67;;;4.10;;
10191;SDS011;17580;50.850;4.504;2022-10-30T08:13:44;8.33;;;3.70;;
10191;SDS011;17580;50.850;4.504;2022-10-30T08:16:11;6.30;;;3.57;;
10191;SDS011;17580;50.850;4.504;2022-10-30T08:18:38;4.20;;;3.80;;
10191;SDS011;17580;50.850;4.504;2022-10-30T08:21:06;5.93;;;3.73;;
10191;SDS011;17580;50.850;4.504;2022-10-30T08:23:34;6.73;;;4.50;;
10191;SDS011;17580;50.850;4.504;2022-10-30T08:26:02;6.33;;;3.97;;
10191;SDS011;17580;50.850;4.504;2022-10-30T08:28:29;3.37;;;3.07;;
10191;SDS011;17580;50.850;4.504;2022-10-30T08:30:56;4.70;;;3.87;;
10191;SDS011;17580;50.850;4.504;2022-10-30T08:33:24;6.00;;;3.97;;
10191;SDS011;17580;50.850;4.504;2022-10-30T08:35:51;7.63;;;3.90;;
10191;SDS011;17580;50.850;4.504;2022-10-30T08:38:20;5.07;;;3.27;;
10191;SDS011;17580;50.850;4.504;2022-10-30T08:40:49;5.47;;;3.73;;
10191;SDS011;17580;50.850;4.504;2022-10-30T08:43:16;4.20;;;3.70;;
10191;SDS011;17580;50.850;4.504;2022-10-30T08:45:43;5.37;;;3.70;;
10191;SDS011;17580;50.850;4.504;2022-10-30T08:48:11;6.60;;;3.83;;
10191;SDS011;17580;50.850;4.504;2022-10-30T08:50:39;6.13;;;3.40;;
10191;SDS011;17580;50.850;4.504;2022-10-30T08:53:08;4.73;;;3.57;;
10191;SDS011;17580;50.850;4.504;2022-10-30T08:55:36;7.20;;;3.80;;
10191;SDS011;17580;50.850;4.504;2022-10-30T08:58:05;5.03;;;3.60;;
10191;SDS011;17580;50.850;4.504;2022-10-30T09:00:31;4.63;;;3.33;;
10191;SDS011;17580;50.850;4.504;2022-10-30T09:02:59;6.07;;;3.53;;
10191;SDS011;17580;50.850;4.504;2022-10-30T09:05:26;6.73;;;4.23;;
10191;SDS011;17580;50.850;4.504;2022-10-30T09:07:56;4.83;;;3.97;;
10191;SDS011;17580;50.850;4.504;2022-10-30T09:10:24;4.93;;;3.60;;
10191;SDS011;17580;50.850;4.504;2022-10-30T09:12:55;8.13;;;4.60;;
10191;SDS011;17580;50.850;4.504;2022-10-30T09:15:24;7.90;;;3.97;;
10191;SDS011;17580;50.850;4.504;2022-10-30T09:17:55;6.63;;;3.63;;
10191;SDS011;17580;50.850;4.504;2022-10-30T09:20:22;7.73;;;4.03;;
10191;SDS011;17580;50.850;4.504;2022-10-30T09:22:49;10.03;;;4.73;;
10191;SDS011;17580;50.850;4.504;2022-10-30T09:25:16;6.07;;;4.23;;
10191;SDS011;17580;50.850;4.504;2022-10-30T09:27:44;7.97;;;4.40;;
10191;SDS011;17580;50.850;4.504;2022-10-30T09:30:11;8.40;;;4.30;;
10191;SDS011;17580;50.850;4.504;2022-10-30T09:32:40;6.23;;;4.13;;
10191;SDS011;17580;50.850;4.504;2022-10-30T09:35:07;7.77;;;4.13;;
10191;SDS011;17580;50.850;4.504;2022-10-30T09:37:34;8.23;;;4.00;;
10191;SDS011;17580;50.850;4.504;2022-10-30T09:40:02;9.00;;;4.73;;
10191;SDS011;17580;50.850;4.504;2022-10-30T09:42:36;7.63;;;3.87;;
10191;SDS011;17580;50.850;4.504;2022-10-30T09:45:19;7.40;;;4.00;;
10191;SDS011;17580;50.850;4.504;2022-10-30T09:48:18;7.77;;;3.90;;
10191;SDS011;17580;50.850;4.504;2022-10-30T09:51:14;8.50;;;4.20;;
10191;SDS011;17580;50.850;4.504;2022-10-30T09:53:58;6.90;;;3.90;;
10191;SDS011;17580;50.850;4.504;2022-10-30T09:56:33;6.93;;;4.17;;
10191;SDS011;17580;50.850;4.504;2022-10-30T09:59:06;8.27;;;4.33;;
10191;SDS011;17580;50.850;4.504;2022-10-30T10:01:45;4.47;;;3.47;;
10191;SDS011;17580;50.850;4.504;2022-10-30T10:04:20;7.27;;;4.50;;
10191;SDS011;17580;50.850;4.504;2022-10-30T10:06:51;4.17;;;3.57;;
10191;SDS011;17580;50.850;4.504;2022-10-30T10:09:22;7.90;;;4.07;;
10191;SDS011;17580;50.850;4.504;2022-10-30T10:11:52;9.70;;;4.13;;
10191;SDS011;17580;50.850;4.504;2022-10-30T10:14:22;6.80;;;4.07;;
10191;SDS011;17580;50.850;4.504;2022-10-30T10:16:51;6.67;;;4.13;;
10191;SDS011;17580;50.850;4.504;2022-10-30T10:19:22;5.80;;;4.00;;
10191;SDS011;17580;50.850;4.504;2022-10-30T10:21:56;6.53;;;3.87;;
10191;SDS011;17580;50.850;4.504;2022-10-30T10:24:24;6.13;;;4.13;;
10191;SDS011;17580;50.850;4.504;2022-10-30T10:26:55;8.63;;;4.20;;
10191;SDS011;17580;50.850;4.504;2022-10-30T10:29:31;4.40;;;3.83;;
10191;SDS011;17580;50.850;4.504;2022-10-30T10:32:14;5.60;;;3.63;;
10191;SDS011;17580;50.850;4.504;2022-10-30T10:35:08;7.93;;;4.83;;
10191;SDS011;17580;50.850;4.504;2022-10-30T10:37:51;5.30;;;3.70;;
10191;SDS011;17580;50.850;4.504;2022-10-30T10:40:27;7.07;;;3.90;;
10191;SDS011;17580;50.850;4.504;2022-10-30T10:43:10;8.07;;;3.90;;
10191;SDS011;17580;50.850;4.504;2022-10-30T10:45:48;7.60;;;4.50;;
10191;SDS011;17580;50.850;4.504;2022-10-30T10:48:28;8.47;;;3.90;;
10191;SDS011;17580;50.850;4.504;2022-10-30T10:51:18;4.30;;;3.73;;
10191;SDS011;17580;50.850;4.504;2022-10-30T10:53:48;8.13;;;3.87;;
10191;SDS011;17580;50.850;4.504;2022-10-30T10:56:20;6.10;;;3.77;;
10191;SDS011;17580;50.850;4.504;2022-10-30T10:58:52;8.70;;;4.10;;
10191;SDS011;17580;50.850;4.504;2022-10-30T11:01:22;7.53;;;3.83;;
10191;SDS011;17580;50.850;4.504;2022-10-30T11:03:59;6.50;;;4.07;;
10191;SDS011;17580;50.850;4.504;2022-10-30T11:06:32;4.93;;;3.70;;
10191;SDS011;17580;50.850;4.504;2022-10-30T11:09:11;8.10;;;4.70;;
10191;SDS011;17580;50.850;4.504;2022-10-30T11:11:40;8.80;;;4.20;;
10191;SDS011;17580;50.850;4.504;2022-10-30T11:14:10;6.90;;;4.00;;
10191;SDS011;17580;50.850;4.504;2022-10-30T11:16:46;6.43;;;3.43;;
10191;SDS011;17580;50.850;4.504;2022-10-30T11:19:22;5.77;;;3.53;;
10191;SDS011;17580;50.850;4.504;2022-10-30T11:21:52;7.03;;;3.50;;
10191;SDS011;17580;50.850;4.504;2022-10-30T11:24:27;7.33;;;3.50;;
10191;SDS011;17580;50.850;4.504;2022-10-30T11:26:56;7.40;;;3.60;;
10191;SDS011;17580;50.850;4.504;2022-10-30T11:29:24;5.17;;;3.57;;
10191;SDS011;17580;50.850;4.504;2022-10-30T11:31:58;6.00;;;3.83;;
10191;SDS011;17580;50.850;4.504;2022-10-30T11:34:32;7.83;;;4.10;;
10191;SDS011;17580;50.850;4.504;2022-10-30T11:37:02;8.27;;;3.93;;
10191;SDS011;17580;50.850;4.504;2022-10-30T11:39:30;5.83;;;4.20;;
10191;SDS011;17580;50.850;4.504;2022-10-30T11:41:59;7.30;;;4.30;;
10191;SDS011;17580;50.850;4.504;2022-10-30T11:44:30;7.90;;;4.10;;
10191;SDS011;17580;50.850;4.504;2022-10-30T11:46:59;5.83;;;4.20;;
10191;SDS011;17580;50.850;4.504;2022-10-30T11:49:36;8.40;;;4.17;;
10191;SDS011;17580;50.850;4.504;2022-10-30T11:52:10;8.77;;;5.13;;
10191;SDS011;17580;50.850;4.504;2022-10-30T11:54:40;9.20;;;4.60;;
10191;SDS011;17580;50.850;4.504;2022-10-30T11:57:22;9.17;;;4.53;;
10191;SDS011;17580;50.850;4.504;2022-10-30T11:59:53;10.70;;;4.87;;
10191;SDS011;17580;50.850;4.504;2022-10-30T12:02:25;7.73;;;4.27;;
10191;SDS011;17580;50.850;4.504;2022-10-30T12:04:54;7.07;;;4.13;;
10191;SDS011;17580;50.850;4.504;2022-10-30T12:07:28;6.50;;;4.43;;
10191;SDS011;17580;50.850;4.504;2022-10-30T12:09:56;7.40;;;4.23;;
10191;SDS011;17580;50.850;4.504;2022-10-30T12:12:26;8.33;;;4.63;;
10191;SDS011;17580;50.850;4.504;2022-10-30T12:14:58;10.87;;;5.33;;
10191;SDS011;17580;50.850;4.504;2022-10-30T12:17:36;8.03;;;4.63;;
10191;SDS011;17580;50.850;4.504;2022-10-30T12:20:04;4.50;;;3.57;;
10191;SDS011;17580;50.850;4.504;2022-10-30T12:22:34;9.03;;;5.40;;
10191;SDS011;17580;50.850;4.504;2022-10-30T12:25:02;14.57;;;5.07;;
10191;SDS011;17580;50.850;4.504;2022-10-30T12:27:34;5.50;;;3.87;;
10191;SDS011;17580;50.850;4.504;2022-10-30T12:30:05;11.80;;;5.23;;
10191;SDS011;17580;50.850;4.504;2022-10-30T12:32:42;11.20;;;4.70;;
10191;SDS011;17580;50.850;4.504;2022-10-30T12:35:23;8.10;;;4.70;;
10191;SDS011;17580;50.850;4.504;2022-10-30T12:38:02;6.40;;;4.80;;
10191;SDS011;17580;50.850;4.504;2022-10-30T12:40:37;8.53;;;4.40;;
10191;SDS011;17580;50.850;4.504;2022-10-30T12:43:10;8.70;;;4.33;;
10191;SDS011;17580;50.850;4.504;2022-10-30T12:45:42;7.97;;;4.57;;
10191;SDS011;17580;50.850;4.504;2022-10-30T12:48:13;10.40;;;4.10;;
10191;SDS011;17580;50.850;4.504;2022-10-30T12:50:51;5.67;;;3.90;;
10191;SDS011;17580;50.850;4.504;2022-10-30T12:53:28;6.63;;;3.60;;
10191;SDS011;17580;50.850;4.504;2022-10-30T12:56:04;9.87;;;4.37;;
10191;SDS011;17580;50.850;4.504;2022-10-30T12:58:38;7.53;;;4.13;;
10191;SDS011;17580;50.850;4.504;2022-10-30T13:01:11;8.77;;;4.33;;
10191;SDS011;17580;50.850;4.504;2022-10-30T13:03:49;5.67;;;3.83;;
10191;SDS011;17580;50.850;4.504;2022-10-30T13:06:22;8.70;;;4.50;;
10191;SDS011;17580;50.850;4.504;2022-10-30T13:08:57;5.13;;;3.83;;
10191;SDS011;17580;50.850;4.504;2022-10-30T13:11:33;7.20;;;4.40;;
10191;SDS011;17580;50.850;4.504;2022-10-30T13:14:04;7.17;;;4.13;;
10191;SDS011;17580;50.850;4.504;2022-10-30T13:16:38;5.00;;;3.90;;
10191;SDS011;17580;50.850;4.504;2022-10-30T13:19:07;11.33;;;4.87;;
10191;SDS011;17580;50.850;4.504;2022-10-30T13:21:37;3.90;;;3.40;;
10191;SDS011;17580;50.850;4.504;2022-10-30T13:24:16;8.63;;;4.23;;
10191;SDS011;17580;50.850;4.504;2022-10-30T13:26:49;5.97;;;3.70;;
10191;SDS011;17580;50.850;4.504;2022-10-30T13:29:23;5.23;;;3.70;;
10191;SDS011;17580;50.850;4.504;2022-10-30T13:32:00;5.13;;;3.27;;
10191;SDS011;17580;50.850;4.504;2022-10-30T13:34:40;4.33;;;3.67;;
10191;SDS011;17580;50.850;4.504;2022-10-30T13:37:15;9.20;;;4.50;;
10191;SDS011;17580;50.850;4.504;2022-10-30T13:39:53;6.43;;;4.03;;
10191;SDS011;17580;50.850;4.504;2022-10-30T13:42:37;9.07;;;4.07;;
10191;SDS011;17580;50.850;4.504;2022-10-30T13:45:19;7.33;;;4.17;;
10191;SDS011;17580;50.850;4.504;2022-10-30T13:48:03;9.83;;;4.27;;
10191;SDS011;17580;50.850;4.504;2022-10-30T13:50:39;8.37;;;4.00;;
10191;SDS011;17580;50.850;4.504;2022-10-30T13:53:19;7.10;;;3.73;;
10191;SDS011;17580;50.850;4.504;2022-10-30T13:55:52;8.20;;;3.63;;
10191;SDS011;17580;50.850;4.504;2022-10-30T13:58:21;7.87;;;3.70;;
10191;SDS011;17580;50.850;4.504;2022-10-30T14:00:58;11.03;;;4.50;;
10191;SDS011;17580;50.850;4.504;2022-10-30T14:03:39;6.40;;;3.47;;
10191;SDS011;17580;50.850;4.504;2022-10-30T14:06:15;5.63;;;3.63;;
10191;SDS011;17580;50.850;4.504;2022-10-30T14:08:51;7.13;;;4.03;;
10191;SDS011;17580;50.850;4.504;2022-10-30T14:11:24;7.63;;;3.53;;
10191;SDS011;17580;50.850;4.504;2022-10-30T14:13:55;5.13;;;3.50;;
10191;SDS011;17580;50.850;4.504;2022-10-30T14:16:31;8.07;;;3.97;;
10191;SDS011;17580;50.850;4.504;2022-10-30T14:19:00;10.60;;;4.17;;
10191;SDS011;17580;50.850;4.504;2022-10-30T14:21:39;8.43;;;4.30;;
10191;SDS011;17580;50.850;4.504;2022-10-30T14:24:12;6.60;;;3.60;;
10191;SDS011;17580;50.850;4.504;2022-10-30T14:26:45;7.83;;;4.20;;
10191;SDS011;17580;50.850;4.504;2022-10-30T14:29:30;13.03;;;4.47;;
10191;SDS011;17580;50.850;4.504;2022-10-30T14:35:00;8.77;;;4.00;;
10191;SDS011;17580;50.850;4.504;2022-10-30T14:40:31;7.27;;;3.73;;
10191;SDS011;17580;50.850;4.504;2022-10-30T14:43:07;6.87;;;3.37;;
10191;SDS011;17580;50.850;4.504;2022-10-30T14:45:39;6.47;;;3.30;;
10191;SDS011;17580;50.850;4.504;2022-10-30T14:48:11;11.80;;;4.17;;
10191;SDS011;17580;50.850;4.504;2022-10-30T14:50:51;5.30;;;4.27;;
10191;SDS011;17580;50.850;4.504;2022-10-30T14:53:33;8.30;;;4.17;;
10191;SDS011;17580;50.850;4.504;2022-10-30T14:56:09;7.77;;;4.93;;
10191;SDS011;17580;50.850;4.504;2022-10-30T14:59:08;9.17;;;4.87;;
10191;SDS011;17580;50.850;4.504;2022-10-30T15:01:47;11.27;;;5.10;;
10191;SDS011;17580;50.850;4.504;2022-10-30T15:04:22;6.07;;;4.53;;
10191;SDS011;17580;50.850;4.504;2022-10-30T15:07:01;8.83;;;3.97;;
10191;SDS011;17580;50.850;4.504;2022-10-30T15:09:43;10.83;;;4.97;;
10191;SDS011;17580;50.850;4.504;2022-10-30T15:12:21;8.93;;;5.00;;
10191;SDS011;17580;50.850;4.504;2022-10-30T15:15:03;13.30;;;4.73;;